sensor_id;sensor_type;location;lat;lon;timestamp;P1;durP1;ratioP1;P2;durP2;ratioP2
77278;SDS011;66332;50.436;15.378;2023-04-03T04:02:28;7.32;;;2.97;;
77278;SDS011;66332;50.436;15.378;2023-04-03T04:07:09;7.38;;;2.95;;
77278;SDS011;66332;50.436;15.378;2023-04-03T04:11:50;9.57;;;3.42;;
77278;SDS011;66332;50.436;15.378;2023-04-03T04:16:36;8.38;;;2.80;;
77278;SDS011;66332;50.436;15.378;2023-04-03T04:21:17;8.95;;;3.35;;
77278;SDS011;66332;50.436;15.378;2023-04-03T04:25:58;10.73;;;3.70;;
77278;SDS011;66332;50.436;15.378;2023-04-03T04:30:39;7.38;;;2.30;;
77278;SDS011;66332;50.436;15.378;2023-04-03T04:35:20;8.68;;;3.08;;
77278;SDS011;66332;50.436;15.378;2023-04-03T04:40:01;8.40;;;2.85;;
77278;SDS011;66332;50.436;15.378;2023-04-03T04:44:42;6.97;;;2.95;;
77278;SDS011;66332;50.436;15.378;2023-04-03T04:49:23;7.63;;;3.35;;
77278;SDS011;66332;50.436;15.378;2023-04-03T04:54:04;6.60;;;2.90;;
77278;SDS011;66332;50.436;15.378;2023-04-03T04:58:45;6.25;;;2.88;;
77278;SDS011;66332;50.436;15.378;2023-04-03T05:03:26;8.27;;;3.40;;
77278;SDS011;66332;50.436;15.378;2023-04-03T05:08:06;6.28;;;2.90;;
77278;SDS011;66332;50.436;15.378;2023-04-03T05:12:48;6.60;;;2.92;;
77278;SDS011;66332;50.436;15.378;2023-04-03T05:17:30;9.80;;;3.63;;
77278;SDS011;66332;50.436;15.378;2023-04-03T05:22:10;9.05;;;3.45;;
77278;SDS011;66332;50.436;15.378;2023-04-03T05:26:51;8.57;;;3.45;;
77278;SDS011;66332;50.436;15.378;2023-04-03T05:31:32;7.35;;;2.80;;
77278;SDS011;66332;50.436;15.378;2023-04-03T05:36:13;8.55;;;3.72;;
77278;SDS011;66332;50.436;15.378;2023-04-03T05:40:54;9.07;;;3.47;;
77278;SDS011;66332;50.436;15.378;2023-04-03T05:45:35;9.20;;;3.20;;
77278;SDS011;66332;50.436;15.378;2023-04-03T05:50:16;8.75;;;3.80;;
77278;SDS011;66332;50.436;15.378;2023-04-03T05:54:57;11.13;;;3.38;;
77278;SDS011;66332;50.436;15.378;2023-04-03T05:59:38;7.95;;;3.22;;
77278;SDS011;66332;50.436;15.378;2023-04-03T06:04:18;9.07;;;3.67;;
77278;SDS011;66332;50.436;15.378;2023-04-03T06:09:01;9.45;;;3.50;;
77278;SDS011;66332;50.436;15.378;2023-04-03T06:13:42;8.23;;;3.63;;
77278;SDS011;66332;50.436;15.378;2023-04-03T06:18:23;10.35;;;3.88;;
77278;SDS011;66332;50.436;15.378;2023-04-03T06:23:04;6.65;;;3.05;;
77278;SDS011;66332;50.436;15.378;2023-04-03T06:27:45;7.28;;;3.28;;
77278;SDS011;66332;50.436;15.378;2023-04-03T06:32:25;8.23;;;3.40;;
77278;SDS011;66332;50.436;15.378;2023-04-03T06:37:10;7.00;;;3.22;;
77278;SDS011;66332;50.436;15.378;2023-04-03T06:41:58;7.60;;;3.13;;
77278;SDS011;66332;50.436;15.378;2023-04-03T06:46:39;6.72;;;3.25;;
77278;SDS011;66332;50.436;15.378;2023-04-03T06:56:05;7.55;;;2.65;;
77278;SDS011;66332;50.436;15.378;2023-04-03T07:00:46;13.10;;;2.85;;
77278;SDS011;66332;50.436;15.378;2023-04-03T07:05:27;6.90;;;2.97;;
77278;SDS011;66332;50.436;15.378;2023-04-03T07:10:08;6.10;;;2.97;;
77278;SDS011;66332;50.436;15.378;2023-04-03T07:14:52;7.50;;;3.22;;
77278;SDS011;66332;50.436;15.378;2023-04-03T07:19:33;7.18;;;2.17;;
77278;SDS011;66332;50.436;15.378;2023-04-03T07:24:14;7.07;;;2.83;;
77278;SDS011;66332;50.436;15.378;2023-04-03T07:28:55;7.75;;;2.50;;
77278;SDS011;66332;50.436;15.378;2023-04-03T07:33:36;7.13;;;2.60;;
77278;SDS011;66332;50.436;15.378;2023-04-03T07:42:58;8.07;;;2.28;;
77278;SDS011;66332;50.436;15.378;2023-04-03T07:47:40;6.30;;;2.13;;
77278;SDS011;66332;50.436;15.378;2023-04-03T07:52:21;6.45;;;2.30;;
77278;SDS011;66332;50.436;15.378;2023-04-03T07:57:02;6.25;;;2.00;;
77278;SDS011;66332;50.436;15.378;2023-04-03T08:01:43;5.80;;;2.08;;
77278;SDS011;66332;50.436;15.378;2023-04-03T08:06:24;5.28;;;1.92;;
77278;SDS011;66332;50.436;15.378;2023-04-03T08:11:05;5.45;;;2.03;;
77278;SDS011;66332;50.436;15.378;2023-04-03T08:15:46;5.85;;;1.83;;
77278;SDS011;66332;50.436;15.378;2023-04-03T08:20:27;6.15;;;1.77;;
77278;SDS011;66332;50.436;15.378;2023-04-03T08:25:08;5.43;;;1.90;;
77278;SDS011;66332;50.436;15.378;2023-04-03T08:29:49;5.47;;;1.70;;
77278;SDS011;66332;50.436;15.378;2023-04-03T08:39:15;5.95;;;1.80;;
77278;SDS011;66332;50.436;15.378;2023-04-03T08:43:58;5.43;;;1.88;;
77278;SDS011;66332;50.436;15.378;2023-04-03T08:48:59;5.63;;;1.80;;
77278;SDS011;66332;50.436;15.378;2023-04-03T08:53:42;4.35;;;1.60;;
77278;SDS011;66332;50.436;15.378;2023-04-03T08:58:30;4.32;;;1.55;;
77278;SDS011;66332;50.436;15.378;2023-04-03T09:03:18;6.07;;;2.00;;
77278;SDS011;66332;50.436;15.378;2023-04-03T09:08:04;5.53;;;2.03;;
77278;SDS011;66332;50.436;15.378;2023-04-03T09:18:04;4.88;;;1.90;;
77278;SDS011;66332;50.436;15.378;2023-04-03T09:22:46;5.40;;;1.90;;
77278;SDS011;66332;50.436;15.378;2023-04-03T09:27:28;5.53;;;1.55;;
77278;SDS011;66332;50.436;15.378;2023-04-03T09:37:08;4.97;;;1.77;;
77278;SDS011;66332;50.436;15.378;2023-04-03T09:46:41;4.07;;;1.50;;
77278;SDS011;66332;50.436;15.378;2023-04-03T09:51:29;5.43;;;1.70;;
77278;SDS011;66332;50.436;15.378;2023-04-03T10:00:59;4.88;;;1.50;;
77278;SDS011;66332;50.436;15.378;2023-04-03T10:05:42;4.47;;;1.67;;
77278;SDS011;66332;50.436;15.378;2023-04-03T10:10:23;5.90;;;1.67;;
77278;SDS011;66332;50.436;15.378;2023-04-03T10:15:16;4.72;;;1.60;;
77278;SDS011;66332;50.436;15.378;2023-04-03T10:24:57;3.92;;;1.40;;
77278;SDS011;66332;50.436;15.378;2023-04-03T10:34:33;6.47;;;1.98;;
77278;SDS011;66332;50.436;15.378;2023-04-03T10:39:21;6.28;;;1.85;;
77278;SDS011;66332;50.436;15.378;2023-04-03T10:49:43;4.15;;;1.58;;
77278;SDS011;66332;50.436;15.378;2023-04-03T11:04:31;5.32;;;1.80;;
77278;SDS011;66332;50.436;15.378;2023-04-03T11:09:31;4.70;;;1.65;;
77278;SDS011;66332;50.436;15.378;2023-04-03T11:14:26;5.30;;;1.73;;
77278;SDS011;66332;50.436;15.378;2023-04-03T11:23:53;4.10;;;1.50;;
77278;SDS011;66332;50.436;15.378;2023-04-03T11:28:39;5.22;;;1.60;;
77278;SDS011;66332;50.436;15.378;2023-04-03T11:38:03;6.35;;;1.80;;
77278;SDS011;66332;50.436;15.378;2023-04-03T11:42:48;5.28;;;1.70;;
77278;SDS011;66332;50.436;15.378;2023-04-03T11:47:51;4.30;;;1.65;;
77278;SDS011;66332;50.436;15.378;2023-04-03T11:57:43;5.75;;;1.40;;
77278;SDS011;66332;50.436;15.378;2023-04-03T12:02:35;6.05;;;1.98;;
77278;SDS011;66332;50.436;15.378;2023-04-03T12:07:18;5.35;;;1.50;;
77278;SDS011;66332;50.436;15.378;2023-04-03T12:12:01;5.25;;;1.90;;
77278;SDS011;66332;50.436;15.378;2023-04-03T12:17:02;4.70;;;1.67;;
77278;SDS011;66332;50.436;15.378;2023-04-03T12:26:28;6.35;;;2.00;;
77278;SDS011;66332;50.436;15.378;2023-04-03T12:31:12;6.40;;;2.13;;
77278;SDS011;66332;50.436;15.378;2023-04-03T12:50:27;4.80;;;1.60;;
77278;SDS011;66332;50.436;15.378;2023-04-03T12:55:15;5.90;;;1.65;;
77278;SDS011;66332;50.436;15.378;2023-04-03T12:59:58;5.00;;;1.83;;
77278;SDS011;66332;50.436;15.378;2023-04-03T13:04:41;4.75;;;1.73;;
77278;SDS011;66332;50.436;15.378;2023-04-03T13:14:04;5.65;;;1.80;;
77278;SDS011;66332;50.436;15.378;2023-04-03T13:18:55;6.63;;;1.63;;
77278;SDS011;66332;50.436;15.378;2023-04-03T13:28:21;4.57;;;1.40;;
77278;SDS011;66332;50.436;15.378;2023-04-03T13:33:26;3.55;;;1.40;;
77278;SDS011;66332;50.436;15.378;2023-04-03T13:38:26;6.32;;;2.05;;
77278;SDS011;66332;50.436;15.378;2023-04-03T13:43:23;6.15;;;1.50;;
77278;SDS011;66332;50.436;15.378;2023-04-03T13:48:07;5.60;;;1.67;;
77278;SDS011;66332;50.436;15.378;2023-04-03T13:52:59;6.13;;;1.63;;
77278;SDS011;66332;50.436;15.378;2023-04-03T13:57:53;5.43;;;1.60;;
77278;SDS011;66332;50.436;15.378;2023-04-03T14:02:40;8.45;;;1.98;;
77278;SDS011;66332;50.436;15.378;2023-04-03T14:07:21;7.07;;;2.38;;
77278;SDS011;66332;50.436;15.378;2023-04-03T14:17:15;5.38;;;1.73;;
77278;SDS011;66332;50.436;15.378;2023-04-03T14:22:00;7.22;;;2.50;;
77278;SDS011;66332;50.436;15.378;2023-04-03T14:26:48;5.10;;;1.85;;
77278;SDS011;66332;50.436;15.378;2023-04-03T14:31:30;7.47;;;2.58;;
77278;SDS011;66332;50.436;15.378;2023-04-03T14:36:17;11.70;;;3.70;;
77278;SDS011;66332;50.436;15.378;2023-04-03T14:41:02;6.78;;;2.55;;
77278;SDS011;66332;50.436;15.378;2023-04-03T14:45:48;5.88;;;1.90;;
77278;SDS011;66332;50.436;15.378;2023-04-03T14:50:35;6.68;;;2.30;;
77278;SDS011;66332;50.436;15.378;2023-04-03T14:55:16;5.78;;;2.00;;
77278;SDS011;66332;50.436;15.378;2023-04-03T15:00:01;5.68;;;1.67;;
77278;SDS011;66332;50.436;15.378;2023-04-03T15:04:47;5.45;;;2.03;;
77278;SDS011;66332;50.436;15.378;2023-04-03T15:09:29;6.18;;;2.35;;
77278;SDS011;66332;50.436;15.378;2023-04-03T15:14:10;14.23;;;4.32;;
77278;SDS011;66332;50.436;15.378;2023-04-03T15:18:54;8.20;;;2.22;;
77278;SDS011;66332;50.436;15.378;2023-04-03T15:23:37;6.03;;;1.80;;
77278;SDS011;66332;50.436;15.378;2023-04-03T15:28:45;7.78;;;2.03;;
77278;SDS011;66332;50.436;15.378;2023-04-03T15:33:26;5.72;;;2.20;;
77278;SDS011;66332;50.436;15.378;2023-04-03T15:38:08;6.10;;;2.05;;
77278;SDS011;66332;50.436;15.378;2023-04-03T15:42:50;6.88;;;2.60;;
77278;SDS011;66332;50.436;15.378;2023-04-03T15:47:41;6.97;;;2.75;;
77278;SDS011;66332;50.436;15.378;2023-04-03T15:52:34;7.75;;;3.03;;
77278;SDS011;66332;50.436;15.378;2023-04-03T15:57:20;6.30;;;2.72;;
77278;SDS011;66332;50.436;15.378;2023-04-03T16:02:27;7.28;;;2.75;;
77278;SDS011;66332;50.436;15.378;2023-04-03T16:07:08;6.10;;;2.45;;
77278;SDS011;66332;50.436;15.378;2023-04-03T16:11:58;6.53;;;2.45;;
77278;SDS011;66332;50.436;15.378;2023-04-03T16:16:39;9.55;;;2.70;;
77278;SDS011;66332;50.436;15.378;2023-04-03T16:21:20;6.18;;;1.92;;
77278;SDS011;66332;50.436;15.378;2023-04-03T16:26:03;5.18;;;1.85;;
77278;SDS011;66332;50.436;15.378;2023-04-03T16:30:44;5.82;;;2.10;;
77278;SDS011;66332;50.436;15.378;2023-04-03T16:35:26;5.85;;;1.80;;
77278;SDS011;66332;50.436;15.378;2023-04-03T16:40:08;4.80;;;1.98;;
77278;SDS011;66332;50.436;15.378;2023-04-03T16:54:14;6.90;;;2.55;;
77278;SDS011;66332;50.436;15.378;2023-04-03T16:58:54;5.47;;;2.50;;
77278;SDS011;66332;50.436;15.378;2023-04-03T17:03:39;8.27;;;2.60;;
77278;SDS011;66332;50.436;15.378;2023-04-03T17:08:21;8.38;;;2.95;;
77278;SDS011;66332;50.436;15.378;2023-04-03T17:13:02;6.88;;;2.83;;
77278;SDS011;66332;50.436;15.378;2023-04-03T17:17:43;7.28;;;2.42;;
77278;SDS011;66332;50.436;15.378;2023-04-03T17:22:24;7.35;;;2.38;;
77278;SDS011;66332;50.436;15.378;2023-04-03T17:27:05;8.57;;;2.63;;
77278;SDS011;66332;50.436;15.378;2023-04-03T17:31:46;7.55;;;3.30;;
77278;SDS011;66332;50.436;15.378;2023-04-03T17:36:28;9.13;;;3.40;;
77278;SDS011;66332;50.436;15.378;2023-04-03T17:41:10;7.10;;;2.33;;
77278;SDS011;66332;50.436;15.378;2023-04-03T17:45:51;9.60;;;3.40;;
77278;SDS011;66332;50.436;15.378;2023-04-03T17:50:32;9.55;;;3.13;;
77278;SDS011;66332;50.436;15.378;2023-04-03T17:55:14;7.82;;;2.58;;
77278;SDS011;66332;50.436;15.378;2023-04-03T17:59:57;6.95;;;2.75;;
77278;SDS011;66332;50.436;15.378;2023-04-03T18:04:38;8.40;;;3.00;;
77278;SDS011;66332;50.436;15.378;2023-04-03T18:09:26;8.13;;;3.35;;
77278;SDS011;66332;50.436;15.378;2023-04-03T18:14:12;8.85;;;3.25;;
77278;SDS011;66332;50.436;15.378;2023-04-03T18:18:55;7.97;;;3.50;;
77278;SDS011;66332;50.436;15.378;2023-04-03T18:23:42;7.35;;;2.90;;
77278;SDS011;66332;50.436;15.378;2023-04-03T18:28:26;7.55;;;2.65;;
77278;SDS011;66332;50.436;15.378;2023-04-03T18:33:09;7.03;;;2.33;;
77278;SDS011;66332;50.436;15.378;2023-04-03T18:37:50;6.70;;;3.00;;
77278;SDS011;66332;50.436;15.378;2023-04-03T18:42:31;6.70;;;2.80;;
77278;SDS011;66332;50.436;15.378;2023-04-03T18:47:12;8.30;;;3.35;;
77278;SDS011;66332;50.436;15.378;2023-04-03T18:51:53;4.72;;;1.92;;
77278;SDS011;66332;50.436;15.378;2023-04-03T18:56:34;6.40;;;2.45;;
77278;SDS011;66332;50.436;15.378;2023-04-03T19:01:17;7.22;;;2.35;;
77278;SDS011;66332;50.436;15.378;2023-04-03T19:05:58;7.05;;;2.72;;
77278;SDS011;66332;50.436;15.378;2023-04-03T19:10:39;7.93;;;3.38;;
77278;SDS011;66332;50.436;15.378;2023-04-03T19:15:21;7.45;;;3.15;;
77278;SDS011;66332;50.436;15.378;2023-04-03T19:20:04;7.95;;;3.60;;
77278;SDS011;66332;50.436;15.378;2023-04-03T19:24:46;9.50;;;4.25;;
77278;SDS011;66332;50.436;15.378;2023-04-03T19:29:27;12.15;;;4.55;;
77278;SDS011;66332;50.436;15.378;2023-04-03T19:34:08;9.68;;;3.50;;
77278;SDS011;66332;50.436;15.378;2023-04-03T19:38:49;7.53;;;3.28;;
77278;SDS011;66332;50.436;15.378;2023-04-03T19:43:30;10.68;;;4.03;;
77278;SDS011;66332;50.436;15.378;2023-04-03T19:48:11;7.10;;;2.90;;
77278;SDS011;66332;50.436;15.378;2023-04-03T19:52:53;7.07;;;2.90;;
77278;SDS011;66332;50.436;15.378;2023-04-03T19:57:34;7.30;;;3.20;;
77278;SDS011;66332;50.436;15.378;2023-04-03T20:02:20;7.47;;;3.20;;
77278;SDS011;66332;50.436;15.378;2023-04-03T20:07:01;8.52;;;4.30;;
77278;SDS011;66332;50.436;15.378;2023-04-03T20:11:42;6.93;;;3.08;;
77278;SDS011;66332;50.436;15.378;2023-04-03T20:16:26;7.72;;;2.92;;
77278;SDS011;66332;50.436;15.378;2023-04-03T20:21:07;9.88;;;4.65;;
77278;SDS011;66332;50.436;15.378;2023-04-03T20:25:50;8.85;;;3.72;;
77278;SDS011;66332;50.436;15.378;2023-04-03T20:30:33;8.15;;;3.38;;
77278;SDS011;66332;50.436;15.378;2023-04-03T20:35:15;7.13;;;3.17;;
77278;SDS011;66332;50.436;15.378;2023-04-03T20:39:56;8.48;;;2.78;;
77278;SDS011;66332;50.436;15.378;2023-04-03T20:44:37;6.93;;;2.83;;
77278;SDS011;66332;50.436;15.378;2023-04-03T20:49:18;6.50;;;2.22;;
77278;SDS011;66332;50.436;15.378;2023-04-03T20:53:58;7.60;;;2.58;;
77278;SDS011;66332;50.436;15.378;2023-04-03T20:58:40;7.70;;;2.72;;
77278;SDS011;66332;50.436;15.378;2023-04-03T21:03:22;6.43;;;2.78;;
77278;SDS011;66332;50.436;15.378;2023-04-03T21:23:46;8.10;;;2.92;;
77278;SDS011;66332;50.436;15.378;2023-04-03T21:28:28;7.50;;;3.08;;
77278;SDS011;66332;50.436;15.378;2023-04-03T21:33:09;7.60;;;3.53;;
77278;SDS011;66332;50.436;15.378;2023-04-03T21:37:49;8.00;;;3.38;;
77278;SDS011;66332;50.436;15.378;2023-04-03T21:42:31;8.80;;;3.30;;
77278;SDS011;66332;50.436;15.378;2023-04-03T21:47:12;8.10;;;3.40;;
77278;SDS011;66332;50.436;15.378;2023-04-03T21:51:53;10.82;;;3.35;;
77278;SDS011;66332;50.436;15.378;2023-04-03T21:56:34;8.75;;;3.42;;
77278;SDS011;66332;50.436;15.378;2023-04-03T22:01:15;7.45;;;3.17;;
77278;SDS011;66332;50.436;15.378;2023-04-03T22:05:57;6.95;;;3.35;;
77278;SDS011;66332;50.436;15.378;2023-04-03T22:10:37;6.82;;;2.83;;
77278;SDS011;66332;50.436;15.378;2023-04-03T22:15:20;6.45;;;2.70;;
77278;SDS011;66332;50.436;15.378;2023-04-03T22:20:01;6.43;;;2.40;;
77278;SDS011;66332;50.436;15.378;2023-04-03T22:24:43;7.90;;;3.22;;
77278;SDS011;66332;50.436;15.378;2023-04-03T22:29:24;7.03;;;2.70;;
77278;SDS011;66332;50.436;15.378;2023-04-03T22:34:05;6.35;;;2.35;;
77278;SDS011;66332;50.436;15.378;2023-04-03T22:38:45;6.68;;;2.30;;
77278;SDS011;66332;50.436;15.378;2023-04-03T22:43:27;6.45;;;2.80;;
77278;SDS011;66332;50.436;15.378;2023-04-03T22:57:30;5.00;;;1.75;;
77278;SDS011;66332;50.436;15.378;2023-04-03T23:02:11;7.75;;;2.58;;
77278;SDS011;66332;50.436;15.378;2023-04-03T23:06:52;6.13;;;2.40;;
77278;SDS011;66332;50.436;15.378;2023-04-03T23:11:33;5.97;;;2.53;;
77278;SDS011;66332;50.436;15.378;2023-04-03T23:16:14;6.40;;;2.58;;
77278;SDS011;66332;50.436;15.378;2023-04-03T23:20:57;5.80;;;2.40;;
77278;SDS011;66332;50.436;15.378;2023-04-03T23:25:38;6.68;;;2.30;;
77278;SDS011;66332;50.436;15.378;2023-04-03T23:30:19;6.43;;;2.35;;
77278;SDS011;66332;50.436;15.378;2023-04-03T23:35:01;5.22;;;2.20;;
77278;SDS011;66332;50.436;15.378;2023-04-03T23:39:42;5.97;;;1.83;;
77278;SDS011;66332;50.436;15.378;2023-04-03T23:44:23;5.85;;;2.58;;
77278;SDS011;66332;50.436;15.378;2023-04-03T23:49:04;6.22;;;2.35;;
77278;SDS011;66332;50.436;15.378;2023-04-03T23:53:45;7.75;;;2.47;;
77278;SDS011;66332;50.436;15.378;2023-04-03T23:58:26;5.85;;;1.95;;
